Hakuryoumaru No.15 — JD2439 — position and weather

sailwx.info

Track history (hours):
 
Tides and Currents Weather Stations Pressure Air Temp Water Temp Dewpoint Dewpoint Depression Visibility Wind Speed Wind Dir Waves Ship Positions

Hakuryoumaru No.15

Last reported at 2017-Mar-26 04:10 UTC. Time now 2017-Mar-26 05:27 UTC.
Position N 34°08' E 135°06'.

Length 80 m; draft 4.6 m.

Type: Tanker. MMSI: 431000243.

Date/timePositionNaut miles runAvg speedWind from/ knotsBaromVisibWave heightAir tempDewpointWater temp
2017-Mar-26 04:10N 34°08' E 135°06'1 0.4
2017-Mar-26 01:21N 34°07' E 135°07'2 2.4
2017-Mar-26 00:27N 34°09' E 135°07'4 4.5
2017-Mar-25 23:33N 34°13' E 135°07'1 0.1
2017-Mar-25 05:06N 34°13' E 135°09'4 6.9
2017-Mar-25 04:33N 34°14' E 135°04'1312.3
2017-Mar-25 03:29N 34°26' E 135°11'9 8.7
2017-Mar-25 02:25N 34°32' E 135°20'3 3.6
2017-Mar-25 01:32N 34°33' E 135°23'2 1.0
2017-Mar-24 23:25N 34°33' E 135°26'7 8.0
2017-Mar-24 22:33N 34°34' E 135°17'1212.4
2017-Mar-24 21:33N 34°36' E 135°03'12111.6
2017-Mar-24 11:05N 33°58' E 132°43'713.5
2017-Mar-24 10:32N 33°54' E 132°36'1413.7
2017-Mar-24 09:32N 33°50' E 132°20'  
2017-Mar-20 15:15N 33°50' E 132°17'912.5
2017-Mar-20 14:33N 33°52' E 132°28'1312.6
2017-Mar-20 13:33N 33°57' E 132°41'12212.0
2017-Mar-20 03:22N 34°37' E 135°01'1012.8
2017-Mar-20 02:34N 34°35' E 135°13'10 3.2
2017-Mar-19 23:19N 34°33' E 135°26'5 6.1
2017-Mar-19 22:33N 34°32' E 135°20'1 0.6
2017-Mar-19 21:33N 34°32' E 135°19'0 0.0
2017-Mar-19 20:33N 34°32' E 135°19'0 0.0
2017-Mar-19 19:33N 34°32' E 135°19'0 0.0
2017-Mar-19 18:33N 34°32' E 135°19'0 0.0
2017-Mar-19 17:33N 34°32' E 135°19'0 0.0
2017-Mar-19 15:21N 34°32' E 135°19'0 0.0
2017-Mar-19 14:33N 34°32' E 135°19'4 4.0
2017-Mar-19 13:33N 34°34' E 135°15'1313.3
2017-Mar-19 12:33N 34°37' E 134°60'  
Track history (hours):
 
Tides and Currents Weather Stations Pressure Air Temp Water Temp Dewpoint Dewpoint Depression Visibility Wind Speed Wind Dir Waves Ship Positions

Hakuryoumaru No.15

Last reported at 2017-Mar-26 04:10 UTC. Time now 2017-Mar-26 05:27 UTC.
Position N 34°08' E 135°06'.

Length 80 m; draft 4.6 m.

Type: Tanker. MMSI: 431000243.

Date/timePositionNaut miles runAvg speedWind from/ knotsBaromVisibWave heightAir tempDewpointWater temp
2017-Mar-26 04:10N 34°08' E 135°06'1 0.4
2017-Mar-26 01:21N 34°07' E 135°07'2 2.4
2017-Mar-26 00:27N 34°09' E 135°07'4 4.5
2017-Mar-25 23:33N 34°13' E 135°07'1 0.1
2017-Mar-25 05:06N 34°13' E 135°09'4 6.9
2017-Mar-25 04:33N 34°14' E 135°04'1312.3
2017-Mar-25 03:29N 34°26' E 135°11'9 8.7
2017-Mar-25 02:25N 34°32' E 135°20'3 3.6
2017-Mar-25 01:32N 34°33' E 135°23'2 1.0
2017-Mar-24 23:25N 34°33' E 135°26'7 8.0
2017-Mar-24 22:33N 34°34' E 135°17'1212.4
2017-Mar-24 21:33N 34°36' E 135°03'12111.6
2017-Mar-24 11:05N 33°58' E 132°43'713.5
2017-Mar-24 10:32N 33°54' E 132°36'1413.7
2017-Mar-24 09:32N 33°50' E 132°20'  
2017-Mar-20 15:15N 33°50' E 132°17'912.5
2017-Mar-20 14:33N 33°52' E 132°28'1312.6
2017-Mar-20 13:33N 33°57' E 132°41'12212.0
2017-Mar-20 03:22N 34°37' E 135°01'1012.8
2017-Mar-20 02:34N 34°35' E 135°13'10 3.2
2017-Mar-19 23:19N 34°33' E 135°26'5 6.1
2017-Mar-19 22:33N 34°32' E 135°20'1 0.6
2017-Mar-19 21:33N 34°32' E 135°19'0 0.0
2017-Mar-19 20:33N 34°32' E 135°19'0 0.0
2017-Mar-19 19:33N 34°32' E 135°19'0 0.0
2017-Mar-19 18:33N 34°32' E 135°19'0 0.0
2017-Mar-19 17:33N 34°32' E 135°19'0 0.0
2017-Mar-19 15:21N 34°32' E 135°19'0 0.0
2017-Mar-19 14:33N 34°32' E 135°19'4 4.0
2017-Mar-19 13:33N 34°34' E 135°15'1313.3
2017-Mar-19 12:33N 34°37' E 134°60'  

Dump ship's entire track history